sensor_id;sensor_type;location;lat;lon;timestamp;temperature;humidity
50560;DHT22;36510;52.610;13.468;2022-08-23T00:02:36;21.40;41.80
50560;DHT22;36510;52.610;13.468;2022-08-23T00:07:27;21.50;41.80
50560;DHT22;36510;52.610;13.468;2022-08-23T00:12:20;21.50;41.60
50560;DHT22;36510;52.610;13.468;2022-08-23T00:17:11;21.50;41.70
50560;DHT22;36510;52.610;13.468;2022-08-23T00:22:02;21.50;41.90
50560;DHT22;36510;52.610;13.468;2022-08-23T00:27:00;21.50;41.80
50560;DHT22;36510;52.610;13.468;2022-08-23T00:31:51;21.50;41.80
50560;DHT22;36510;52.610;13.468;2022-08-23T00:36:42;21.50;41.90
50560;DHT22;36510;52.610;13.468;2022-08-23T00:41:34;21.50;42.10
50560;DHT22;36510;52.610;13.468;2022-08-23T00:46:42;21.40;42.00
50560;DHT22;36510;52.610;13.468;2022-08-23T00:52:08;21.40;42.10
50560;DHT22;36510;52.610;13.468;2022-08-23T00:57:02;21.40;41.70
50560;DHT22;36510;52.610;13.468;2022-08-23T01:01:54;21.10;42.30
50560;DHT22;36510;52.610;13.468;2022-08-23T01:06:56;20.90;42.60
50560;DHT22;36510;52.610;13.468;2022-08-23T01:12:05;20.60;42.70
50560;DHT22;36510;52.610;13.468;2022-08-23T01:17:08;20.70;42.70
50560;DHT22;36510;52.610;13.468;2022-08-23T01:27:26;21.10;41.20
50560;DHT22;36510;52.610;13.468;2022-08-23T01:32:17;21.20;41.20
50560;DHT22;36510;52.610;13.468;2022-08-23T01:37:08;21.20;40.60
50560;DHT22;36510;52.610;13.468;2022-08-23T01:41:59;21.30;40.70
50560;DHT22;36510;52.610;13.468;2022-08-23T01:46:49;21.20;40.10
50560;DHT22;36510;52.610;13.468;2022-08-23T01:51:40;21.30;40.30
50560;DHT22;36510;52.610;13.468;2022-08-23T01:56:32;21.30;40.10
50560;DHT22;36510;52.610;13.468;2022-08-23T02:01:23;21.30;40.90
50560;DHT22;36510;52.610;13.468;2022-08-23T02:06:13;21.10;41.20
50560;DHT22;36510;52.610;13.468;2022-08-23T02:11:08;21.00;41.40
50560;DHT22;36510;52.610;13.468;2022-08-23T02:15:59;21.00;41.90
50560;DHT22;36510;52.610;13.468;2022-08-23T02:20:51;21.00;41.60
50560;DHT22;36510;52.610;13.468;2022-08-23T02:25:42;21.10;41.10
50560;DHT22;36510;52.610;13.468;2022-08-23T02:30:33;21.00;40.50
50560;DHT22;36510;52.610;13.468;2022-08-23T02:35:24;21.00;40.40
50560;DHT22;36510;52.610;13.468;2022-08-23T02:40:15;21.10;40.20
50560;DHT22;36510;52.610;13.468;2022-08-23T02:45:06;21.00;39.80
50560;DHT22;36510;52.610;13.468;2022-08-23T02:49:57;20.90;40.00
50560;DHT22;36510;52.610;13.468;2022-08-23T02:54:48;20.80;40.50
50560;DHT22;36510;52.610;13.468;2022-08-23T02:59:38;20.80;40.60
50560;DHT22;36510;52.610;13.468;2022-08-23T03:04:29;20.80;40.80
50560;DHT22;36510;52.610;13.468;2022-08-23T03:09:20;20.80;40.80
50560;DHT22;36510;52.610;13.468;2022-08-23T03:14:11;20.70;40.90
50560;DHT22;36510;52.610;13.468;2022-08-23T03:19:02;20.70;41.20
50560;DHT22;36510;52.610;13.468;2022-08-23T03:23:53;20.60;41.40
50560;DHT22;36510;52.610;13.468;2022-08-23T03:28:44;20.70;41.50
50560;DHT22;36510;52.610;13.468;2022-08-23T03:33:35;20.60;41.70
50560;DHT22;36510;52.610;13.468;2022-08-23T03:38:26;20.40;42.40
50560;DHT22;36510;52.610;13.468;2022-08-23T03:43:17;20.50;42.70
50560;DHT22;36510;52.610;13.468;2022-08-23T03:48:08;20.50;42.30
50560;DHT22;36510;52.610;13.468;2022-08-23T03:52:58;20.50;42.50
50560;DHT22;36510;52.610;13.468;2022-08-23T03:57:49;20.50;42.50
50560;DHT22;36510;52.610;13.468;2022-08-23T04:02:39;20.70;42.30
50560;DHT22;36510;52.610;13.468;2022-08-23T04:07:29;20.70;41.90
50560;DHT22;36510;52.610;13.468;2022-08-23T04:12:20;20.80;42.00
50560;DHT22;36510;52.610;13.468;2022-08-23T04:17:12;20.90;42.10
50560;DHT22;36510;52.610;13.468;2022-08-23T04:22:03;20.90;42.20
50560;DHT22;36510;52.610;13.468;2022-08-23T04:26:54;20.90;42.40
50560;DHT22;36510;52.610;13.468;2022-08-23T04:31:45;20.90;42.40
50560;DHT22;36510;52.610;13.468;2022-08-23T04:36:38;20.80;42.90
50560;DHT22;36510;52.610;13.468;2022-08-23T04:41:29;20.80;42.70
50560;DHT22;36510;52.610;13.468;2022-08-23T04:46:39;20.80;43.00
50560;DHT22;36510;52.610;13.468;2022-08-23T04:51:30;20.80;42.50
50560;DHT22;36510;52.610;13.468;2022-08-23T04:56:20;20.80;42.70
50560;DHT22;36510;52.610;13.468;2022-08-23T05:01:12;20.80;43.20
50560;DHT22;36510;52.610;13.468;2022-08-23T05:06:05;20.80;42.90
50560;DHT22;36510;52.610;13.468;2022-08-23T05:11:02;20.80;43.00
50560;DHT22;36510;52.610;13.468;2022-08-23T05:15:53;20.80;43.50
50560;DHT22;36510;52.610;13.468;2022-08-23T05:20:44;20.80;43.60
50560;DHT22;36510;52.610;13.468;2022-08-23T05:25:35;20.80;43.50
50560;DHT22;36510;52.610;13.468;2022-08-23T05:30:41;20.80;43.70
50560;DHT22;36510;52.610;13.468;2022-08-23T05:35:31;20.70;43.90
50560;DHT22;36510;52.610;13.468;2022-08-23T05:40:22;20.80;44.30
50560;DHT22;36510;52.610;13.468;2022-08-23T05:45:12;20.90;44.20
50560;DHT22;36510;52.610;13.468;2022-08-23T05:50:03;20.90;43.90
50560;DHT22;36510;52.610;13.468;2022-08-23T05:54:55;20.80;44.20
50560;DHT22;36510;52.610;13.468;2022-08-23T05:59:45;20.80;44.80
50560;DHT22;36510;52.610;13.468;2022-08-23T06:04:36;20.70;45.40
50560;DHT22;36510;52.610;13.468;2022-08-23T06:09:27;20.70;46.00
50560;DHT22;36510;52.610;13.468;2022-08-23T06:14:17;20.70;45.70
50560;DHT22;36510;52.610;13.468;2022-08-23T06:19:08;20.80;46.20
50560;DHT22;36510;52.610;13.468;2022-08-23T06:24:00;20.90;46.30
50560;DHT22;36510;52.610;13.468;2022-08-23T06:28:53;20.80;46.50
50560;DHT22;36510;52.610;13.468;2022-08-23T06:33:44;21.00;46.80
50560;DHT22;36510;52.610;13.468;2022-08-23T06:38:35;21.00;46.90
50560;DHT22;36510;52.610;13.468;2022-08-23T06:43:26;20.90;47.00
50560;DHT22;36510;52.610;13.468;2022-08-23T06:48:16;20.90;47.80
50560;DHT22;36510;52.610;13.468;2022-08-23T06:53:07;21.00;47.80
50560;DHT22;36510;52.610;13.468;2022-08-23T06:57:57;21.00;48.30
50560;DHT22;36510;52.610;13.468;2022-08-23T07:02:48;21.00;48.60
50560;DHT22;36510;52.610;13.468;2022-08-23T07:07:38;21.00;49.10
50560;DHT22;36510;52.610;13.468;2022-08-23T07:12:29;21.00;49.10
50560;DHT22;36510;52.610;13.468;2022-08-23T07:17:19;21.20;49.80
50560;DHT22;36510;52.610;13.468;2022-08-23T07:22:10;21.30;48.70
50560;DHT22;36510;52.610;13.468;2022-08-23T07:27:02;21.50;48.60
50560;DHT22;36510;52.610;13.468;2022-08-23T07:31:56;21.30;49.60
50560;DHT22;36510;52.610;13.468;2022-08-23T07:36:48;21.10;50.60
50560;DHT22;36510;52.610;13.468;2022-08-23T07:41:38;21.10;51.60
50560;DHT22;36510;52.610;13.468;2022-08-23T07:46:30;21.40;50.00
50560;DHT22;36510;52.610;13.468;2022-08-23T07:51:22;21.50;49.80
50560;DHT22;36510;52.610;13.468;2022-08-23T07:56:14;21.50;49.60
50560;DHT22;36510;52.610;13.468;2022-08-23T08:01:23;21.50;49.50
50560;DHT22;36510;52.610;13.468;2022-08-23T08:06:18;21.40;49.30
50560;DHT22;36510;52.610;13.468;2022-08-23T08:11:10;21.40;50.30
50560;DHT22;36510;52.610;13.468;2022-08-23T08:16:01;21.50;50.00
50560;DHT22;36510;52.610;13.468;2022-08-23T08:20:51;21.50;49.70
50560;DHT22;36510;52.610;13.468;2022-08-23T08:25:42;21.50;49.60
50560;DHT22;36510;52.610;13.468;2022-08-23T08:30:32;21.60;49.60
50560;DHT22;36510;52.610;13.468;2022-08-23T08:35:23;21.90;48.70
50560;DHT22;36510;52.610;13.468;2022-08-23T08:40:18;22.10;47.40
50560;DHT22;36510;52.610;13.468;2022-08-23T08:45:15;22.20;46.80
50560;DHT22;36510;52.610;13.468;2022-08-23T08:50:23;22.20;45.40
50560;DHT22;36510;52.610;13.468;2022-08-23T08:55:25;22.30;44.40
50560;DHT22;36510;52.610;13.468;2022-08-23T09:00:27;22.40;44.50
50560;DHT22;36510;52.610;13.468;2022-08-23T09:05:22;22.30;43.50
50560;DHT22;36510;52.610;13.468;2022-08-23T09:10:51;22.50;43.10
50560;DHT22;36510;52.610;13.468;2022-08-23T09:21:13;22.90;40.20
50560;DHT22;36510;52.610;13.468;2022-08-23T09:26:16;23.00;39.60
50560;DHT22;36510;52.610;13.468;2022-08-23T09:31:07;23.10;38.90
50560;DHT22;36510;52.610;13.468;2022-08-23T09:36:15;23.10;37.90
50560;DHT22;36510;52.610;13.468;2022-08-23T09:41:15;23.20;38.40
50560;DHT22;36510;52.610;13.468;2022-08-23T09:46:07;23.20;36.70
50560;DHT22;36510;52.610;13.468;2022-08-23T09:51:12;23.20;36.70
